Time;durP1;ratioP1;P1;durP2;ratioP2;P2;SDS_P1;SDS_P2;PMS_P1;PMS_P2;Temp;Humidity;BMP_temperature;BMP_pressure;BME280_temperature;BME280_humidity;BME280_pressure;Samples;Min_cycle;Max_cycle;Signal;HPM_P1;HPM_P2
2021/04/05 00:00:08;;;;;;;21.55;14.30;;;179.90;1920.00;;;;;;5070262;28;20074;-74
2021/04/05 00:02:34;;;;;;;19.85;14.43;;;179.80;1920.00;;;;;;5070359;28;20051;-75
2021/04/05 00:05:00;;;;;;;19.70;13.50;;;179.80;1920.00;;;;;;5070164;28;20471;-77
2021/04/05 00:07:25;;;;;;;22.00;14.85;;;179.80;1920.00;;;;;;5070306;28;20028;-74
2021/04/05 00:09:51;;;;;;;21.27;15.18;;;179.70;1945.60;;;;;;5070228;28;20017;-73
2021/04/05 00:12:17;;;;;;;18.88;14.43;;;179.70;1920.00;;;;;;5070424;28;20032;-73
2021/04/05 00:14:43;;;;;;;24.02;15.70;;;179.90;1945.60;;;;;;5070034;28;20024;-73
2021/04/05 00:17:10;;;;;;;22.73;14.80;;;179.50;1945.60;;;;;;5070122;28;20029;-73
2021/04/05 00:19:39;;;;;;;22.08;15.35;;;179.40;1971.20;;;;;;5070066;28;20368;-74
2021/04/05 00:22:05;;;;;;;21.63;15.27;;;179.30;1971.20;;;;;;5070437;28;20032;-74
2021/04/05 00:24:31;;;;;;;20.58;14.82;;;179.40;1971.20;;;;;;5070141;28;20031;-73
2021/04/05 00:26:57;;;;;;;20.17;14.75;;;179.30;1971.20;;;;;;5070126;28;20028;-74
2021/04/05 00:29:22;;;;;;;22.02;15.68;;;179.70;1971.20;;;;;;5069811;28;20017;-73
2021/04/05 00:31:49;;;;;;;24.60;15.85;;;154.40;2022.40;;;;;;5069649;28;20075;-74
2021/04/05 00:34:14;;;;;;;21.65;15.75;;;154.50;1996.80;;;;;;5070191;28;20058;-73
2021/04/05 00:36:40;;;;;;;23.33;16.83;;;154.30;2022.40;;;;;;5069787;28;20425;-76
2021/04/05 00:39:06;;;;;;;23.75;15.75;;;154.40;2022.40;;;;;;5069844;28;20039;-73
2021/04/05 00:41:32;;;;;;;23.42;15.77;;;154.50;1996.80;;;;;;5072794;28;20016;-75
2021/04/05 00:43:58;;;;;;;22.60;15.88;;;154.30;2022.40;;;;;;5073347;28;20447;-73
2021/04/05 00:46:25;;;;;;;21.85;14.85;;;154.40;1996.80;;;;;;5073737;28;20060;-75
2021/04/05 00:48:52;;;;;;;24.30;14.60;;;179.20;1996.80;;;;;;5073420;28;20032;-75
2021/04/05 00:51:21;;;;;;;20.38;14.35;;;179.20;1971.20;;;;;;5073419;28;20028;-73
2021/04/05 00:53:47;;;;;;;20.13;14.48;;;179.30;1971.20;;;;;;5073615;28;20028;-74
2021/04/05 00:56:15;;;;;;;18.83;14.50;;;179.20;1971.20;;;;;;5073582;28;20021;-75
2021/04/05 00:58:41;;;;;;;22.48;15.00;;;179.20;1971.20;;;;;;5073400;28;20467;-75
2021/04/05 01:01:09;;;;;;;20.30;14.32;;;179.20;1971.20;;;;;;5073490;28;20028;-74
2021/04/05 01:03:38;;;;;;;19.65;14.38;;;179.20;1945.60;;;;;;5073390;28;20021;-74
2021/04/05 01:06:19;;;;;;;19.90;14.90;;;179.20;1945.60;;;;;;5073256;28;20059;-74
2021/04/05 01:08:45;;;;;;;18.17;13.52;;;154.30;1971.20;;;;;;5073258;28;20505;-74
2021/04/05 01:11:13;;;;;;;19.40;14.65;;;154.50;1971.20;;;;;;5072989;28;20399;-73
2021/04/05 01:13:39;;;;;;;19.85;13.55;;;154.50;1945.60;;;;;;5072837;28;20033;-73
2021/04/05 01:16:05;;;;;;;20.95;14.00;;;154.40;1971.20;;;;;;5073036;28;20032;-75
2021/04/05 01:18:31;;;;;;;19.52;14.45;;;154.40;1971.20;;;;;;5072847;28;20375;-74
2021/04/05 01:20:58;;;;;;;18.73;13.70;;;154.50;1945.60;;;;;;5072638;28;20045;-74
2021/04/05 01:23:24;;;;;;;18.30;13.57;;;154.50;1945.60;;;;;;5073090;28;20027;-74
2021/04/05 01:25:51;;;;;;;19.35;13.52;;;179.20;1920.00;;;;;;5072810;28;20029;-74
2021/04/05 01:28:17;;;;;;;18.65;13.63;;;154.40;1945.60;;;;;;5072926;28;20475;-73
2021/04/05 01:30:48;;;;;;;21.90;13.73;;;153.90;1945.60;;;;;;5072779;28;20102;-74
2021/04/05 01:33:27;;;;;;;18.45;14.38;;;154.40;1945.60;;;;;;5072980;28;20277;-74
2021/04/05 01:35:55;;;;;;;19.42;14.13;;;154.30;1945.60;;;;;;5072799;28;20382;-74
2021/04/05 01:38:42;;;;;;;17.70;14.18;;;154.30;1945.60;;;;;;5072447;28;20039;-74
2021/04/05 01:41:11;;;;;;;20.38;14.30;;;154.40;1945.60;;;;;;5072555;28;20024;-75
2021/04/05 01:43:37;;;;;;;19.90;14.77;;;154.30;1945.60;;;;;;5072489;28;20072;-73
2021/04/05 01:46:05;;;;;;;20.08;14.60;;;154.40;1945.60;;;;;;5072730;28;20028;-74
2021/04/05 01:48:32;;;;;;;21.90;15.50;;;154.30;1945.60;;;;;;5072461;28;20021;-74
2021/04/05 01:51:07;;;;;;;22.45;15.10;;;154.30;1945.60;;;;;;5072554;28;20032;-73
2021/04/05 01:53:35;;;;;;;19.42;14.68;;;154.20;1945.60;;;;;;5071672;28;20391;-73
2021/04/05 01:56:03;;;;;;;19.02;14.35;;;154.10;1945.60;;;;;;5072277;28;20021;-73
2021/04/05 01:58:30;;;;;;;22.90;14.70;;;154.30;1945.60;;;;;;5072120;28;20029;-73
2021/04/05 02:00:57;;;;;;;21.02;15.27;;;154.20;1945.60;;;;;;5072400;28;20099;-73
2021/04/05 02:03:23;;;;;;;22.17;15.13;;;154.20;1945.60;;;;;;5072067;28;20030;-73
2021/04/05 02:05:58;;;;;;;20.92;14.73;;;154.20;1945.60;;;;;;5072088;28;20360;-73
2021/04/05 02:08:25;;;;;;;20.88;15.48;;;154.20;1945.60;;;;;;5070819;28;20517;-73
2021/04/05 02:10:53;;;;;;;21.80;14.88;;;154.20;1920.00;;;;;;5071830;28;20055;-74
2021/04/05 02:13:21;;;;;;;18.38;14.50;;;154.10;1945.60;;;;;;5071554;28;20032;-74
2021/04/05 02:15:48;;;;;;;21.25;15.10;;;154.10;1945.60;;;;;;5072187;28;20465;-74
2021/04/05 02:18:14;;;;;;;24.40;16.08;;;154.30;1920.00;;;;;;5071987;28;20022;-74
2021/04/05 02:20:40;;;;;;;21.02;14.68;;;154.30;1920.00;;;;;;5071479;28;20055;-74
2021/04/05 02:23:06;;;;;;;20.27;15.40;;;154.30;1920.00;;;;;;5071869;28;20436;-74
2021/04/05 02:25:33;;;;;;;18.70;14.23;;;154.30;1920.00;;;;;;5071464;28;20025;-74
2021/04/05 02:28:01;;;;;;;19.65;13.82;;;154.30;1920.00;;;;;;5071560;28;20031;-73
2021/04/05 02:30:29;;;;;;;19.10;14.52;;;154.40;1894.40;;;;;;5071685;28;20370;-74
2021/04/05 02:33:00;;;;;;;22.35;15.20;;;154.30;1894.40;;;;;;5071508;28;20112;-73
2021/04/05 02:35:28;;;;;;;20.13;14.75;;;154.10;1920.00;;;;;;5070217;28;20025;-74
2021/04/05 02:37:56;;;;;;;20.88;15.55;;;153.90;1945.60;;;;;;5071389;28;20488;-74
2021/04/05 02:40:22;;;;;;;20.27;14.80;;;153.90;1945.60;;;;;;5071284;28;20024;-74
2021/04/05 02:42:49;;;;;;;22.13;15.80;;;153.90;1945.60;;;;;;5071193;28;20025;-74
2021/04/05 02:45:17;;;;;;;26.48;17.02;;;154.00;1920.00;;;;;;5071313;28;20031;-73
2021/04/05 02:47:43;;;;;;;20.63;14.95;;;153.90;1945.60;;;;;;5071238;28;20104;-74
2021/04/05 02:50:10;;;;;;;20.95;15.60;;;154.00;1920.00;;;;;;5071234;28;20016;-75
2021/04/05 02:52:37;;;;;;;24.77;16.95;;;153.90;1945.60;;;;;;5071090;28;20478;-74
2021/04/05 02:55:05;;;;;;;33.80;21.10;;;154.00;1920.00;;;;;;5071369;28;20025;-74
2021/04/05 02:57:37;;;;;;;23.80;16.83;;;153.90;1945.60;;;;;;5071029;28;20078;-75
2021/04/05 03:00:11;;;;;;;22.80;15.93;;;153.90;1920.00;;;;;;5071114;28;20024;-74
2021/04/05 03:02:38;;;;;;;21.73;16.10;;;154.00;1920.00;;;;;;5071112;28;20380;-74
2021/04/05 03:05:06;;;;;;;21.10;16.38;;;153.90;1920.00;;;;;;5070993;28;20025;-74
2021/04/05 03:07:32;;;;;;;25.25;17.00;;;153.90;1920.00;;;;;;5070893;28;20025;-74
2021/04/05 03:09:59;;;;;;;24.30;16.20;;;153.90;1920.00;;;;;;5070787;28;20103;-74
2021/04/05 03:12:26;;;;;;;23.80;16.45;;;153.90;1920.00;;;;;;5069539;28;20072;-74
2021/04/05 03:14:52;;;;;;;18.98;15.02;;;153.80;1945.60;;;;;;5069094;28;20465;-74
2021/04/05 03:17:19;;;;;;;22.27;15.45;;;153.90;1920.00;;;;;;5070687;28;20517;-74
2021/04/05 03:19:46;;;;;;;30.35;19.13;;;153.80;1945.60;;;;;;5070683;28;20048;-74
2021/04/05 03:22:12;;;;;;;28.67;18.50;;;153.70;1945.60;;;;;;5070537;28;20021;-74
2021/04/05 03:24:39;;;;;;;29.58;18.52;;;153.80;1945.60;;;;;;5070642;28;20024;-73
2021/04/05 03:27:05;;;;;;;32.88;19.02;;;153.80;1945.60;;;;;;5070815;28;20029;-74
2021/04/05 03:29:35;;;;;;;28.30;17.73;;;153.80;1945.60;;;;;;5070511;28;20467;-74
2021/04/05 03:32:03;;;;;;;41.15;21.98;;;153.90;1920.00;;;;;;5070348;28;20035;-74
2021/04/05 03:34:32;;;;;;;34.67;21.35;;;153.90;1920.00;;;;;;5070299;28;20028;-74
2021/04/05 03:37:04;;;;;;;28.73;17.58;;;154.00;1920.00;;;;;;5070426;28;20536;-74
2021/04/05 03:39:30;;;;;;;29.13;18.15;;;154.00;1894.40;;;;;;5070425;28;20059;-74
2021/04/05 03:42:12;;;;;;;30.63;18.20;;;153.90;1920.00;;;;;;5070646;28;20360;-76
2021/04/05 03:44:54;;;;;;;25.65;17.33;;;153.90;1920.00;;;;;;5070395;28;20028;-73
2021/04/05 03:47:50;;;;;;;30.58;19.58;;;153.90;1920.00;;;;;;5070253;28;20039;-74
2021/04/05 03:50:27;;;;;;;26.90;17.77;;;153.90;1920.00;;;;;;5070692;28;20108;-74
2021/04/05 03:53:08;;;;;;;23.77;16.88;;;153.90;1920.00;;;;;;5070167;28;20039;-75
2021/04/05 03:55:35;;;;;;;23.33;16.35;;;153.80;1920.00;;;;;;5069187;28;20028;-75
2021/04/05 03:58:02;;;;;;;25.10;16.45;;;153.70;1920.00;;;;;;5070292;28;20429;-74
2021/04/05 04:00:30;;;;;;;25.15;17.55;;;153.60;1945.60;;;;;;5070702;28;20035;-74
2021/04/05 04:03:00;;;;;;;21.98;17.20;;;153.60;1945.60;;;;;;5070523;28;20421;-74
2021/04/05 04:05:44;;;;;;;24.10;15.95;;;153.70;1945.60;;;;;;5070210;28;20031;-75
2021/04/05 04:08:41;;;;;;;23.95;16.33;;;128.90;1945.60;;;;;;5070081;28;20100;-74
2021/04/05 04:11:09;;;;;;;24.60;15.18;;;128.90;1945.60;;;;;;5069627;28;20028;-74
2021/04/05 04:13:42;;;;;;;20.10;14.95;;;153.60;1945.60;;;;;;5069922;28;20048;-74
2021/04/05 04:16:11;;;;;;;21.67;15.13;;;128.90;1971.20;;;;;;5072687;28;20403;-73
2021/04/05 04:18:37;;;;;;;22.60;14.70;;;128.90;1971.20;;;;;;5074122;28;20506;-75
2021/04/05 04:21:08;;;;;;;20.45;14.32;;;153.60;1945.60;;;;;;5074082;28;20068;-73
2021/04/05 04:23:35;;;;;;;19.87;14.63;;;128.90;1971.20;;;;;;5073966;28;20025;-75
2021/04/05 04:26:01;;;;;;;16.75;12.90;;;128.70;1971.20;;;;;;5073956;28;20025;-73
2021/04/05 04:28:27;;;;;;;19.38;14.82;;;128.70;1996.80;;;;;;5074067;28;20428;-73
2021/04/05 04:31:01;;;;;;;20.35;14.45;;;128.70;1996.80;;;;;;5073732;28;20466;-73
2021/04/05 04:33:28;;;;;;;21.77;15.38;;;128.90;1971.20;;;;;;5073762;28;20024;-74
2021/04/05 04:35:54;;;;;;;23.23;15.65;;;128.60;2022.40;;;;;;5073755;28;20020;-73
2021/04/05 04:38:24;;;;;;;20.70;15.35;;;128.70;1996.80;;;;;;5073597;28;20089;-74
2021/04/05 04:40:51;;;;;;;20.88;13.93;;;128.80;1996.80;;;;;;5073514;28;20024;-74
2021/04/05 04:43:17;;;;;;;24.80;14.98;;;128.80;1971.20;;;;;;5073557;28;20028;-74
2021/04/05 04:45:43;;;;;;;21.13;14.32;;;128.90;1971.20;;;;;;5073397;28;20154;-75
2021/04/05 04:48:10;;;;;;;20.10;14.15;;;153.60;1945.60;;;;;;5073371;28;20056;-74
2021/04/05 04:50:35;;;;;;;22.15;14.35;;;153.60;1945.60;;;;;;5073969;28;20021;-75
2021/04/05 04:53:02;;;;;;;19.65;14.10;;;153.70;1945.60;;;;;;5073412;28;20039;-73
2021/04/05 04:55:28;;;;;;;22.60;14.35;;;128.90;1945.60;;;;;;5073678;28;20027;-75
2021/04/05 04:58:03;;;;;;;19.73;13.77;;;128.90;1945.60;;;;;;5073747;28;20025;-74
2021/04/05 05:00:31;;;;;;;21.15;14.15;;;128.90;1945.60;;;;;;5073506;28;20021;-72
2021/04/05 05:02:58;;;;;;;22.85;13.50;;;128.90;1971.20;;;;;;5073461;28;20028;-74
2021/04/05 05:05:27;;;;;;;21.08;13.25;;;128.80;1971.20;;;;;;5073377;28;20020;-74
2021/04/05 05:07:54;;;;;;;16.23;12.80;;;128.90;1945.60;;;;;;5073228;28;20099;-74
2021/04/05 05:10:21;;;;;;;19.30;13.68;;;153.70;1945.60;;;;;;5073126;28;20020;-75
2021/04/05 05:12:46;;;;;;;17.45;13.05;;;153.60;1945.60;;;;;;5073207;28;20470;-74
2021/04/05 05:15:14;;;;;;;21.27;13.95;;;153.60;1945.60;;;;;;5071884;28;20032;-74
2021/04/05 05:17:45;;;;;;;23.40;14.55;;;153.70;1920.00;;;;;;5072989;28;20538;-74
2021/04/05 05:20:13;;;;;;;18.45;12.77;;;153.80;1920.00;;;;;;5072828;28;20048;-74
2021/04/05 05:22:56;;;;;;;18.50;13.25;;;153.80;1920.00;;;;;;5072929;28;20479;-75
2021/04/05 05:25:23;;;;;;;21.55;14.25;;;153.90;1894.40;;;;;;5071545;28;20078;-74
2021/04/05 05:27:55;;;;;;;22.75;14.55;;;153.80;1894.40;;;;;;5071579;28;20021;-75
2021/04/05 05:30:22;;;;;;;22.02;14.15;;;153.80;1920.00;;;;;;5072842;28;20056;-73
2021/04/05 05:32:49;;;;;;;19.38;13.85;;;153.90;1894.40;;;;;;5073017;28;20036;-73
2021/04/05 05:35:17;;;;;;;21.67;14.30;;;154.00;1894.40;;;;;;5072718;28;20032;-72
2021/04/05 05:37:43;;;;;;;20.33;14.40;;;154.10;1894.40;;;;;;5072522;28;20030;-71
2021/04/05 05:40:12;;;;;;;17.27;13.27;;;154.10;1868.80;;;;;;5072473;28;20024;-71
2021/04/05 05:43:08;;;;;;;20.55;13.93;;;154.30;1868.80;;;;;;5072461;28;20028;-72
2021/04/05 05:45:42;;;;;;;20.88;14.23;;;154.30;1868.80;;;;;;5072548;28;20029;-73
2021/04/05 05:48:13;;;;;;;21.92;15.80;;;154.20;1868.80;;;;;;5072614;28;20060;-73
2021/04/05 05:50:55;;;;;;;26.40;17.13;;;154.00;1920.00;;;;;;5072410;28;20105;-71
2021/04/05 05:53:57;;;;;;;22.75;16.77;;;154.40;1894.40;;;;;;5072254;28;20036;-72
2021/04/05 05:56:47;;;;;;;23.88;14.90;;;154.10;1894.40;;;;;;5071210;28;20398;-72
2021/04/05 05:59:25;;;;;;;20.38;14.60;;;154.30;1868.80;;;;;;5072380;28;20029;-72
2021/04/05 06:02:21;;;;;;;22.33;15.60;;;154.40;1868.80;;;;;;5072060;28;20020;-73
2021/04/05 06:05:24;;;;;;;20.45;14.77;;;154.50;1868.80;;;;;;5072406;28;20028;-73
2021/04/05 06:08:12;;;;;;;34.15;22.45;;;179.20;1868.80;;;;;;5072061;28;20119;-73
2021/04/05 06:10:47;;;;;;;20.73;15.05;;;179.20;1894.40;;;;;;5071967;28;20056;-75
2021/04/05 06:13:31;;;;;;;20.27;15.63;;;179.20;1868.80;;;;;;5071848;28;20152;-72
2021/04/05 06:16:20;;;;;;;22.17;15.55;;;179.30;1868.80;;;;;;5072033;28;20063;-73
2021/04/05 06:19:07;;;;;;;19.77;13.93;;;179.40;1817.60;;;;;;5071973;28;20028;-72
2021/04/05 06:21:57;;;;;;;26.50;17.65;;;179.50;1817.60;;;;;;5071949;28;20037;-73
2021/04/05 06:24:33;;;;;;;19.08;13.27;;;179.40;1792.00;;;;;;5071929;28;20016;-73
2021/04/05 06:27:08;;;;;;;21.20;14.77;;;179.40;1766.40;;;;;;5071602;28;20021;-74
2021/04/05 06:29:50;;;;;;;21.00;13.90;;;179.50;1740.80;;;;;;5071787;28;20027;-71
2021/04/05 06:32:52;;;;;;;20.52;15.05;;;179.60;1715.20;;;;;;5071798;28;20044;-71
2021/04/05 06:35:47;;;;;;;24.10;16.83;;;179.80;1740.80;;;;;;5070109;28;20368;-72
2021/04/05 06:38:21;;;;;;;34.55;20.65;;;179.90;1689.60;;;;;;5071209;28;20012;-73
2021/04/05 06:40:48;;;;;;;22.38;16.00;;;180.00;1715.20;;;;;;5071565;28;20028;-73
2021/04/05 06:43:44;;;;;;;27.65;19.98;;;180.10;1715.20;;;;;;5071377;28;20060;-72
2021/04/05 06:46:22;;;;;;;20.67;13.60;;;204.90;1689.60;;;;;;5071267;28;20059;-70
2021/04/05 06:49:24;;;;;;;20.20;13.77;;;180.10;1689.60;;;;;;5071122;28;20460;-72
2021/04/05 06:52:16;;;;;;;19.23;13.70;;;180.00;1689.60;;;;;;5071177;28;20075;-73
2021/04/05 06:54:57;;;;;;;15.95;12.77;;;204.80;1689.60;;;;;;5055115;28;20041;-74
2021/04/05 06:57:42;;;;;;;18.58;13.65;;;204.90;1664.00;;;;;;5071469;28;20496;-72
2021/04/05 07:00:31;;;;;;;23.70;14.07;;;204.90;1638.40;;;;;;5071179;28;20036;-72
2021/04/05 07:03:24;;;;;;;17.17;13.15;;;204.90;1638.40;;;;;;5029272;28;20042;-73
2021/04/05 07:06:04;;;;;;;23.60;14.25;;;205.00;1638.40;;;;;;5028923;28;20060;-71
2021/04/05 07:09:01;;;;;;;70.07;39.78;;;205.10;1612.80;;;;;;5028751;28;20071;-73
2021/04/05 07:12:03;;;;;;;30.88;19.08;;;205.30;1612.80;;;;;;5029077;28;20029;-71
2021/04/05 07:15:10;;;;;;;25.95;17.88;;;205.40;1587.20;;;;;;5028558;28;20050;-73
2021/04/05 07:17:36;;;;;;;17.50;12.52;;;205.60;1561.60;;;;;;4931715;29;20044;-72
2021/04/05 07:20:23;;;;;;;15.90;12.20;;;205.60;1561.60;;;;;;4930718;29;20062;-74
2021/04/05 07:23:14;;;;;;;18.08;12.25;;;205.60;1510.40;;;;;;4929088;29;20078;-74
2021/04/05 07:26:10;;;;;;;20.67;14.27;;;205.70;1510.40;;;;;;4941761;29;20035;-75
2021/04/05 07:29:12;;;;;;;16.77;12.25;;;230.40;1484.80;;;;;;4940817;29;20031;-72
2021/04/05 07:32:04;;;;;;;18.65;12.32;;;230.50;1459.20;;;;;;4941362;29;20532;-73
2021/04/05 07:35:04;;;;;;;17.65;11.95;;;230.60;1459.20;;;;;;4940585;29;20047;-74
2021/04/05 07:37:44;;;;;;;18.85;13.05;;;230.60;1459.20;;;;;;4942512;29;20054;-75
2021/04/05 07:40:22;;;;;;;22.88;14.68;;;230.60;1484.80;;;;;;4974506;28;20084;-75
2021/04/05 07:42:51;;;;;;;20.35;13.57;;;230.70;1484.80;;;;;;4997317;28;20032;-74
2021/04/05 07:45:30;;;;;;;26.58;18.38;;;230.80;1459.20;;;;;;4996766;28;20109;-76
2021/04/05 07:48:22;;;;;;;19.08;13.13;;;230.80;1433.60;;;;;;4999652;28;20118;-74
2021/04/05 07:51:01;;;;;;;17.45;12.60;;;230.90;1484.80;;;;;;4998257;28;20023;-74
2021/04/05 07:53:47;;;;;;;30.58;17.95;;;231.00;1433.60;;;;;;5010753;28;20046;-73
2021/04/05 07:56:26;;;;;;;18.88;13.80;;;231.10;1459.20;;;;;;5080820;28;20054;-74
2021/04/05 07:59:05;;;;;;;22.83;15.18;;;231.20;1433.60;;;;;;5080349;28;20016;-73
2021/04/05 08:01:40;;;;;;;26.40;16.95;;;231.30;1408.00;;;;;;5080505;28;20036;-73
2021/04/05 08:04:13;;;;;;;19.70;14.35;;;256.10;1408.00;;;;;;5080471;28;20032;-74
2021/04/05 08:06:55;;;;;;;17.73;13.40;;;256.10;1408.00;;;;;;5078605;28;20020;-73
2021/04/05 08:09:32;;;;;;;16.67;12.40;;;256.10;1382.40;;;;;;5079382;28;20474;-75
2021/04/05 08:12:25;;;;;;;17.45;13.07;;;256.10;1356.80;;;;;;5078708;28;20091;-73
2021/04/05 08:15:02;;;;;;;19.55;13.52;;;256.30;1382.40;;;;;;5080093;28;20103;-72
2021/04/05 08:17:39;;;;;;;23.38;14.85;;;256.40;1382.40;;;;;;5079948;28;20040;-72
2021/04/05 08:20:21;;;;;;;23.52;14.38;;;256.60;1382.40;;;;;;5079536;28;20499;-73
2021/04/05 08:23:03;;;;;;;19.23;12.30;;;256.70;1382.40;;;;;;5079568;28;20020;-73
2021/04/05 08:26:13;;;;;;;15.68;12.18;;;256.70;1331.20;;;;;;5080155;28;20044;-73
2021/04/05 08:28:48;;;;;;;25.00;14.63;;;256.80;1331.20;;;;;;5079622;28;20046;-74
2021/04/05 08:31:41;;;;;;;17.00;12.95;;;256.90;1305.60;;;;;;5080561;28;20538;-73
2021/04/05 08:34:27;;;;;;;17.35;12.10;;;256.90;1305.60;;;;;;5080167;28;20029;-73
2021/04/05 08:37:07;;;;;;;16.98;12.95;;;281.60;1331.20;;;;;;5080044;28;20024;-73
2021/04/05 08:39:44;;;;;;;18.60;12.85;;;281.70;1331.20;;;;;;5080389;28;20073;-73
2021/04/05 08:42:32;;;;;;;17.40;12.38;;;281.90;1408.00;;;;;;5080025;28;20021;-73
2021/04/05 08:45:19;;;;;;;16.00;12.23;;;282.00;1280.00;;;;;;5077852;28;20032;-73
2021/04/05 08:48:03;;;;;;;30.30;20.35;;;282.10;1254.40;;;;;;5078831;28;20028;-73
2021/04/05 08:50:34;;;;;;;16.77;11.10;;;282.10;1305.60;;;;;;5079196;28;20554;-73
2021/04/05 08:53:02;;;;;;;13.95;10.60;;;282.20;1228.80;;;;;;5078462;28;20071;-73
2021/04/05 08:55:31;;;;;;;14.30;10.13;;;282.10;1203.20;;;;;;5078796;28;20024;-73
2021/04/05 08:58:04;;;;;;;15.65;10.88;;;282.00;1203.20;;;;;;5078003;28;20043;-73
2021/04/05 09:00:33;;;;;;;17.85;12.32;;;282.10;1203.20;;;;;;5078225;28;20019;-74
2021/04/05 09:03:06;;;;;;;34.63;21.50;;;282.30;1228.80;;;;;;5081807;28;20132;-73
2021/04/05 09:05:33;;;;;;;50.78;28.35;;;282.40;1280.00;;;;;;5079982;28;20108;-74
2021/04/05 09:08:08;;;;;;;29.65;19.33;;;282.50;1228.80;;;;;;5083286;28;20031;-73
2021/04/05 09:10:38;;;;;;;21.55;14.15;;;307.30;1203.20;;;;;;5083725;28;20478;-71
2021/04/05 09:13:07;;;;;;;13.88;10.43;;;307.40;1203.20;;;;;;5082037;28;20399;-73
2021/04/05 09:15:38;;;;;;;19.23;13.23;;;307.50;1177.60;;;;;;5081292;28;20382;-73
2021/04/05 09:18:04;;;;;;;;;;;307.60;1177.60;;;;;;5082615;28;20051;-73
2021/04/05 09:20:39;;;;;;;9.48;7.38;;;307.70;1152.00;;;;;;5082366;28;20394;-73
2021/04/05 09:23:29;;;;;;;13.15;8.82;;;307.60;1075.20;;;;;;5081053;28;20028;-74
2021/04/05 09:26:09;;;;;;;10.73;8.43;;;307.70;1152.00;;;;;;5083218;28;20022;-74
2021/04/05 09:28:39;;;;;;;8.90;7.63;;;307.80;1177.60;;;;;;5083127;28;20093;-74
2021/04/05 09:31:08;;;;;;;9.85;7.40;;;307.80;1049.60;;;;;;5082625;28;20029;-74
2021/04/05 09:33:57;;;;;;;11.52;7.55;;;307.60;1075.20;;;;;;5081018;28;20115;-74
2021/04/05 09:37:00;;;;;;;21.17;14.00;;;307.50;1152.00;;;;;;5081633;28;20012;-74
2021/04/05 09:39:35;;;;;;;20.23;13.07;;;307.40;1126.40;;;;;;5082529;28;20467;-74
2021/04/05 09:42:25;;;;;;;10.30;7.22;;;307.50;1049.60;;;;;;5087081;28;20031;-74
2021/04/05 09:45:02;;;;;;;10.90;6.53;;;307.60;998.40;;;;;;5091272;28;20486;-73
2021/04/05 09:47:47;;;;;;;15.43;8.15;;;307.50;1049.60;;;;;;5092596;28;20020;-73
2021/04/05 09:50:23;;;;;;;134.05;66.78;;;307.50;1049.60;;;;;;5092564;28;20025;-74
2021/04/05 09:53:10;;;;;;;76.28;39.55;;;307.60;1100.80;;;;;;5092327;28;20032;-72
2021/04/05 09:55:44;;;;;;;34.42;18.63;;;307.70;1100.80;;;;;;5091494;28;20035;-75
2021/04/05 09:58:23;;;;;;;17.35;11.02;;;307.70;1126.40;;;;;;5092202;28;20027;-74
2021/04/05 10:01:03;;;;;;;18.85;11.32;;;307.80;1126.40;;;;;;5092532;28;20028;-74
2021/04/05 10:03:29;;;;;;;20.98;12.07;;;307.80;1100.80;;;;;;5092431;28;20363;-72
2021/04/05 10:06:02;;;;;;;13.85;10.13;;;307.90;1126.40;;;;;;5092667;28;20529;-72
2021/04/05 10:08:29;;;;;;;12.55;9.13;;;308.10;1152.00;;;;;;5092470;28;20012;-72
2021/04/05 10:10:57;;;;;;;13.60;9.70;;;332.80;1152.00;;;;;;5092443;28;20418;-72
2021/04/05 10:13:28;;;;;;;10.45;7.80;;;333.10;1203.20;;;;;;5091291;28;20044;-72
2021/04/05 10:15:57;;;;;;;11.40;8.15;;;333.20;1075.20;;;;;;5092245;28;20024;-73
2021/04/05 10:18:24;;;;;;;20.20;9.93;;;333.20;1100.80;;;;;;5092085;28;20030;-73
2021/04/05 10:20:52;;;;;;;10.27;8.13;;;333.40;1100.80;;;;;;5091730;28;20431;-72
2021/04/05 10:23:21;;;;;;;9.23;7.60;;;333.40;1075.20;;;;;;5092155;28;20309;-73
2021/04/05 10:25:59;;;;;;;13.30;8.18;;;333.50;1100.80;;;;;;5092173;28;20103;-73
2021/04/05 10:28:29;;;;;;;14.85;9.95;;;333.60;1100.80;;;;;;5092055;28;20031;-74
2021/04/05 10:30:58;;;;;;;13.68;8.70;;;333.70;1100.80;;;;;;5090972;28;20350;-73
2021/04/05 10:33:38;;;;;;;18.00;10.93;;;333.70;1075.20;;;;;;5091992;28;20036;-72
2021/04/05 10:36:06;;;;;;;15.40;8.93;;;333.70;1075.20;;;;;;5091876;28;20024;-73
2021/04/05 10:38:34;;;;;;;12.65;8.15;;;333.70;998.40;;;;;;5091596;28;20024;-72
2021/04/05 10:41:00;;;;;;;15.55;11.23;;;358.40;1024.00;;;;;;5091408;28;20478;-72
2021/04/05 10:43:44;;;;;;;15.13;8.52;;;333.70;1024.00;;;;;;5091627;28;20047;-72
2021/04/05 10:46:17;;;;;;;9.30;7.00;;;333.70;1024.00;;;;;;5091407;28;20026;-72
2021/04/05 10:48:53;;;;;;;8.60;6.82;;;358.40;972.80;;;;;;5091384;28;20031;-72
2021/04/05 10:51:29;;;;;;;9.07;7.03;;;358.50;1024.00;;;;;;5091266;28;20032;-72
2021/04/05 10:54:19;;;;;;;8.63;6.90;;;358.70;1024.00;;;;;;5091432;28;20032;-74
2021/04/05 10:56:52;;;;;;;8.03;6.33;;;358.80;998.40;;;;;;5091757;28;20028;-72
2021/04/05 10:59:32;;;;;;;10.95;7.22;;;358.70;947.20;;;;;;5091439;28;20020;-73
2021/04/05 11:02:06;;;;;;;7.80;5.80;;;358.70;998.40;;;;;;5090067;28;20012;-73
2021/04/05 11:04:33;;;;;;;8.13;5.82;;;358.70;896.00;;;;;;5091317;28;20466;-73
2021/04/05 11:07:03;;;;;;;9.38;6.38;;;358.80;972.80;;;;;;5091241;28;20387;-73
2021/04/05 11:09:31;;;;;;;8.48;5.90;;;358.70;947.20;;;;;;5090949;28;20035;-73
2021/04/05 11:12:00;;;;;;;9.77;5.60;;;358.70;972.80;;;;;;5091196;28;20040;-72
2021/04/05 11:14:26;;;;;;;8.98;6.20;;;358.70;947.20;;;;;;5091052;28;20028;-72
2021/04/05 11:16:58;;;;;;;9.75;7.00;;;358.50;921.60;;;;;;5091040;28;20016;-73
2021/04/05 11:19:31;;;;;;;;;;;358.50;947.20;;;;;;5091394;28;20047;-72
2021/04/05 11:21:59;;;;;;;11.43;7.20;;;358.50;972.80;;;;;;5091085;28;19908;-73
2021/04/05 11:24:36;;;;;;;8.57;6.50;;;358.60;998.40;;;;;;5090236;28;20065;-73
2021/04/05 11:27:06;;;;;;;31.02;20.13;;;358.70;1024.00;;;;;;5089504;28;20024;-73
2021/04/05 11:29:33;;;;;;;8.85;7.15;;;358.70;972.80;;;;;;5090672;28;20035;-75
2021/04/05 11:32:01;;;;;;;9.00;6.35;;;358.70;947.20;;;;;;5090774;28;20128;-74
2021/04/05 11:34:34;;;;;;;9.02;6.50;;;358.90;972.80;;;;;;5090866;28;20016;-74
2021/04/05 11:37:03;;;;;;;6.57;5.07;;;359.00;947.20;;;;;;5090601;28;20023;-73
2021/04/05 11:39:32;;;;;;;10.73;6.30;;;359.20;947.20;;;;;;5090672;28;20043;-74
2021/04/05 11:42:02;;;;;;;9.65;6.47;;;359.20;921.60;;;;;;5089259;28;20016;-74
2021/04/05 11:44:34;;;;;;;13.95;9.05;;;384.00;947.20;;;;;;5090641;28;20032;-75
2021/04/05 11:47:00;;;;;;;10.93;7.50;;;359.30;947.20;;;;;;5090482;28;20054;-73
2021/04/05 11:49:32;;;;;;;8.48;5.90;;;384.10;921.60;;;;;;5089386;28;20058;-73
2021/04/05 11:52:07;;;;;;;5.43;4.65;;;384.20;921.60;;;;;;5089139;28;20028;-76
2021/04/05 11:54:56;;;;;;;5.75;4.10;;;384.40;870.40;;;;;;5090342;28;20032;-75
2021/04/05 11:57:49;;;;;;;5.78;4.03;;;384.70;921.60;;;;;;5090489;28;20103;-74
2021/04/05 12:00:18;;;;;;;6.85;4.97;;;384.80;870.40;;;;;;5090621;28;20104;-76
2021/04/05 12:02:53;;;;;;;6.40;4.68;;;384.90;844.80;;;;;;5089466;28;20362;-74
2021/04/05 12:05:33;;;;;;;7.75;4.70;;;409.70;896.00;;;;;;5089087;28;20491;-75
2021/04/05 12:08:10;;;;;;;8.10;6.55;;;409.90;896.00;;;;;;5090345;28;20034;-75
2021/04/05 12:10:38;;;;;;;7.25;4.70;;;410.00;870.40;;;;;;5090638;28;20028;-75
2021/04/05 12:13:28;;;;;;;5.57;4.35;;;410.10;844.80;;;;;;5090525;28;20035;-75
2021/04/05 12:15:59;;;;;;;4.68;3.85;;;410.20;844.80;;;;;;5090540;28;20490;-74
2021/04/05 12:18:26;;;;;;;4.10;3.58;;;410.30;819.20;;;;;;5090493;28;20042;-74
2021/04/05 12:21:02;;;;;;;6.07;3.92;;;410.10;793.60;;;;;;5090088;28;20071;-73
2021/04/05 12:23:28;;;;;;;4.95;4.00;;;410.10;793.60;;;;;;5090233;28;20342;-73
2021/04/05 12:25:55;;;;;;;6.53;4.45;;;410.20;793.60;;;;;;5090508;28;20077;-73
2021/04/05 12:28:21;;;;;;;8.93;6.03;;;410.40;844.80;;;;;;5090452;28;20020;-71
2021/04/05 12:30:52;;;;;;;10.70;7.50;;;435.30;896.00;;;;;;5090375;28;20034;-72
2021/04/05 12:33:24;;;;;;;9.85;7.80;;;435.40;870.40;;;;;;5090346;28;20028;-72
2021/04/05 12:35:53;;;;;;;6.85;4.47;;;435.50;844.80;;;;;;5090321;28;20504;-73